Time;durP1;ratioP1;P1;durP2;ratioP2;P2;SDS_P1;SDS_P2;PMS_P1;PMS_P2;Temp;Humidity;BMP_temperature;BMP_pressure;BME280_temperature;BME280_humidity;BME280_pressure;Samples;Min_cycle;Max_cycle;Signal;HPM_P1;HPM_P2
2022/09/22 00:00:54;;;;;;;;;;;;;;;14.10;54.34;100051.38;4497769;31;34919;-61
2022/09/22 00:03:21;;;;;;;;;;;;;;;14.31;53.90;100056.78;4489161;31;34539;-61
2022/09/22 00:05:49;;;;;;;;;;;;;;;14.52;53.09;100056.81;4487271;31;34836;-61
2022/09/22 00:08:16;;;;;;;;;;;;;;;14.50;53.04;100054.19;4493866;31;32660;-62
2022/09/22 00:10:43;;;;;;;;;;;;;;;14.12;54.74;100063.72;4494485;31;34521;-61
2022/09/22 00:13:11;;;;;;;;;;;;;;;14.40;53.43;100058.69;4487642;31;34237;-61
2022/09/22 00:15:43;;;;;;;;;;;;;;;14.06;55.57;100049.91;4485047;32;34367;-61
2022/09/22 00:18:11;;;;;;;;;;;;;;;14.40;53.84;100055.97;4488093;31;34369;-61
2022/09/22 00:20:38;;;;;;;;;;;;;;;14.59;53.26;100050.75;4493687;31;34663;-61
2022/09/22 00:23:06;;;;;;;;;;;;;;;14.55;53.30;100052.00;4494777;31;34054;-61
2022/09/22 00:25:33;;;;;;;;;;;;;;;14.74;52.61;100047.72;4497333;31;34009;-61
2022/09/22 00:28:01;;;;;;;;;;;;;;;14.73;52.65;100046.00;4463477;31;33186;-61
2022/09/22 00:30:30;;;;;;;;;;;;;;;14.26;53.58;100046.41;4482971;31;34240;-61
2022/09/22 00:32:57;;;;;;;;;;;;;;;14.69;52.41;100053.50;4484267;31;34266;-61
2022/09/22 00:35:24;;;;;;;;;;;;;;;14.68;53.02;100049.09;4484676;31;34947;-61
2022/09/22 00:37:52;;;;;;;;;;;;;;;14.41;53.49;100038.84;4485084;32;32087;-61
2022/09/22 00:40:19;;;;;;;;;;;;;;;14.54;53.17;100036.84;4484640;31;34040;-60
2022/09/22 00:42:47;;;;;;;;;;;;;;;14.75;52.26;100041.34;4482979;31;34374;-61
2022/09/22 00:45:14;;;;;;;;;;;;;;;14.74;52.18;100045.03;4488039;31;34010;-61
2022/09/22 00:47:42;;;;;;;;;;;;;;;14.48;52.71;100041.84;4486522;31;32757;-61
2022/09/22 00:50:12;;;;;;;;;;;;;;;14.46;53.01;100036.59;4490447;31;34264;-61
2022/09/22 00:52:49;;;;;;;;;;;;;;;14.42;52.73;100027.94;4482908;31;32759;-61
2022/09/22 00:55:20;;;;;;;;;;;;;;;14.51;52.34;100036.22;4492455;31;34370;-61
2022/09/22 00:57:47;;;;;;;;;;;;;;;14.47;52.37;100032.91;4499263;31;33474;-61
2022/09/22 01:00:15;;;;;;;;;;;;;;;14.40;52.40;100029.91;4477433;31;33754;-61
2022/09/22 01:02:44;;;;;;;;;;;;;;;14.39;52.70;100032.75;4493404;31;34770;-61
2022/09/22 01:05:11;;;;;;;;;;;;;;;14.43;52.39;100031.47;4487448;31;33866;-61
2022/09/22 01:07:38;;;;;;;;;;;;;;;14.53;52.13;100032.41;4484029;31;33581;-61
2022/09/22 01:10:06;;;;;;;;;;;;;;;14.60;51.77;100033.59;4492703;31;35024;-61
2022/09/22 01:12:33;;;;;;;;;;;;;;;14.55;52.21;100035.00;4495850;31;33048;-61
2022/09/22 01:15:10;;;;;;;;;;;;;;;14.56;51.96;100028.62;4492206;31;34520;-61
2022/09/22 01:17:40;;;;;;;;;;;;;;;14.58;51.72;100024.81;4491452;31;33470;-61
2022/09/22 01:20:32;;;;;;;;;;;;;;;14.55;51.54;100025.06;4496370;31;34299;-61
2022/09/22 01:23:18;;;;;;;;;;;;;;;14.57;51.53;100020.37;4481165;31;34441;-61
2022/09/22 01:25:45;;;;;;;;;;;;;;;14.53;51.61;100018.97;4490845;31;34280;-61
2022/09/22 01:28:22;;;;;;;;;;;;;;;14.42;51.94;100021.72;4492534;31;34382;-61
2022/09/22 01:30:52;;;;;;;;;;;;;;;14.37;52.31;100021.25;4476622;31;35607;-61
2022/09/22 01:33:38;;;;;;;;;;;;;;;14.43;52.16;100016.19;4495754;31;34324;-61
2022/09/22 01:36:06;;;;;;;;;;;;;;;14.47;52.54;100022.16;4492309;31;34858;-61
2022/09/22 01:38:35;;;;;;;;;;;;;;;14.57;51.97;100031.16;4497346;31;33364;-61
2022/09/22 01:41:07;;;;;;;;;;;;;;;14.52;52.25;100028.03;4479512;31;34833;-61
2022/09/22 01:43:49;;;;;;;;;;;;;;;14.47;52.09;100024.00;4483676;31;34312;-61
2022/09/22 01:46:19;;;;;;;;;;;;;;;14.60;51.38;100025.50;4483107;31;32980;-62
2022/09/22 01:48:47;;;;;;;;;;;;;;;14.59;51.27;100031.03;4476930;32;32675;-61
2022/09/22 01:51:33;;;;;;;;;;;;;;;14.43;52.48;100026.94;4470041;31;34246;-61
2022/09/22 01:54:03;;;;;;;;;;;;;;;14.56;51.86;100028.62;4468935;32;34703;-61
2022/09/22 01:56:30;;;;;;;;;;;;;;;14.43;52.55;100029.63;4483695;31;33859;-61
2022/09/22 01:58:58;;;;;;;;;;;;;;;14.54;51.79;100026.06;4483787;31;33230;-61
2022/09/22 02:01:27;;;;;;;;;;;;;;;14.32;52.54;100023.50;4477157;31;32701;-61
2022/09/22 02:03:59;;;;;;;;;;;;;;;14.45;52.08;100025.00;4485075;31;33050;-62
2022/09/22 02:06:34;;;;;;;;;;;;;;;14.38;52.45;100020.25;4483494;31;34039;-61
2022/09/22 02:09:03;;;;;;;;;;;;;;;13.85;54.20;100018.47;4493720;31;33672;-61
2022/09/22 02:11:31;;;;;;;;;;;;;;;14.28;52.73;100014.81;4485213;31;34371;-61
2022/09/22 02:13:58;;;;;;;;;;;;;;;14.32;52.83;100018.97;4483791;31;34124;-62
2022/09/22 02:16:26;;;;;;;;;;;;;;;14.23;53.04;100017.06;4484130;31;33930;-62
2022/09/22 02:19:01;;;;;;;;;;;;;;;14.13;53.38;100016.13;4484967;31;33464;-62
2022/09/22 02:21:39;;;;;;;;;;;;;;;14.33;52.98;100019.81;4476447;31;35367;-61
2022/09/22 02:24:23;;;;;;;;;;;;;;;14.36;52.97;100022.22;4478213;32;34377;-62
2022/09/22 02:26:50;;;;;;;;;;;;;;;14.24;53.93;100009.81;4473324;31;35512;-62
2022/09/22 02:29:18;;;;;;;;;;;;;;;14.40;53.18;100020.97;4490497;31;33694;-62
2022/09/22 02:31:45;;;;;;;;;;;;;;;14.51;52.78;100017.38;4492138;31;33903;-62
2022/09/22 02:34:12;;;;;;;;;;;;;;;14.12;53.95;100020.63;4473810;31;32831;-64
2022/09/22 02:36:48;;;;;;;;;;;;;;;14.18;53.09;100017.44;4497951;31;34002;-62
2022/09/22 02:39:35;;;;;;;;;;;;;;;14.15;53.19;100014.16;4498585;31;34260;-61
2022/09/22 02:42:20;;;;;;;;;;;;;;;14.26;52.64;100016.78;4481934;31;33879;-63
2022/09/22 02:44:48;;;;;;;;;;;;;;;14.33;52.87;100015.28;4483300;32;33005;-62
2022/09/22 02:47:19;;;;;;;;;;;;;;;14.15;53.25;100016.84;4483944;31;33718;-63
2022/09/22 02:49:47;;;;;;;;;;;;;;;14.27;52.80;100023.03;4468402;31;32616;-62
2022/09/22 02:52:17;;;;;;;;;;;;;;;14.45;52.29;100016.91;4481312;31;33804;-63
2022/09/22 02:54:44;;;;;;;;;;;;;;;14.48;52.37;100025.69;4470945;31;32651;-63
2022/09/22 02:57:11;;;;;;;;;;;;;;;14.23;52.62;100018.91;4491624;31;34412;-63
2022/09/22 02:59:39;;;;;;;;;;;;;;;14.27;52.22;100009.56;4487589;31;33167;-63
2022/09/22 03:02:06;;;;;;;;;;;;;;;14.20;52.41;100011.94;4484888;31;34285;-63
2022/09/22 03:04:33;;;;;;;;;;;;;;;14.29;52.02;100007.59;4482578;32;35826;-63
2022/09/22 03:07:01;;;;;;;;;;;;;;;14.24;51.96;100010.66;4484284;31;34729;-63
2022/09/22 03:09:28;;;;;;;;;;;;;;;14.09;52.59;100006.59;4483887;31;34170;-63
2022/09/22 03:11:55;;;;;;;;;;;;;;;13.99;52.73;100003.81;4480132;31;34233;-63
2022/09/22 03:14:23;;;;;;;;;;;;;;;14.07;52.64;100005.88;4483540;32;32984;-62
2022/09/22 03:16:50;;;;;;;;;;;;;;;13.99;52.81;100009.22;4482270;31;34172;-62
2022/09/22 03:19:17;;;;;;;;;;;;;;;14.06;52.53;100015.81;4489161;31;33124;-61
2022/09/22 03:21:45;;;;;;;;;;;;;;;14.06;52.48;100014.94;4482171;31;33900;-61
2022/09/22 03:24:12;;;;;;;;;;;;;;;14.10;52.04;100016.41;4490548;31;34216;-61
2022/09/22 03:26:39;;;;;;;;;;;;;;;14.09;52.24;100009.28;4492521;31;33375;-66
2022/09/22 03:29:07;;;;;;;;;;;;;;;13.80;53.45;100006.37;4482744;31;34035;-63
2022/09/22 03:31:34;;;;;;;;;;;;;;;13.77;53.04;100012.84;4488127;31;35341;-62
2022/09/22 03:34:02;;;;;;;;;;;;;;;13.87;53.16;100007.59;4470821;31;33905;-62
2022/09/22 03:36:29;;;;;;;;;;;;;;;13.85;53.13;100009.53;4498192;31;34871;-62
2022/09/22 03:38:58;;;;;;;;;;;;;;;14.12;52.78;100009.87;4494184;31;33206;-62
2022/09/22 03:41:25;;;;;;;;;;;;;;;13.97;53.06;100003.13;4488522;31;35550;-62
2022/09/22 03:43:53;;;;;;;;;;;;;;;13.99;53.13;100004.69;4482440;31;33931;-62
2022/09/22 03:46:20;;;;;;;;;;;;;;;13.72;54.23;100001.66;4482957;32;35209;-62
2022/09/22 03:48:47;;;;;;;;;;;;;;;13.89;53.44;100000.22;4481957;31;32696;-61
2022/09/22 03:51:15;;;;;;;;;;;;;;;13.72;54.02;99998.97;4482025;31;34232;-62
2022/09/22 03:53:42;;;;;;;;;;;;;;;13.64;54.18;100004.09;4483127;31;34187;-62
2022/09/22 03:56:11;;;;;;;;;;;;;;;13.38;54.84;99996.38;4476896;31;33808;-62
2022/09/22 03:58:39;;;;;;;;;;;;;;;13.26;55.27;99998.25;4487068;31;33341;-62
2022/09/22 04:01:06;;;;;;;;;;;;;;;13.44;55.27;100006.63;4482033;31;34177;-62
2022/09/22 04:03:34;;;;;;;;;;;;;;;13.63;54.18;100003.25;4484405;31;34206;-62
2022/09/22 04:06:01;;;;;;;;;;;;;;;13.52;54.24;100000.63;4488790;31;34160;-62
2022/09/22 04:08:28;;;;;;;;;;;;;;;13.44;54.44;99998.56;4485656;31;33161;-62
2022/09/22 04:10:59;;;;;;;;;;;;;;;13.58;54.05;100001.94;4486274;31;34009;-63
2022/09/22 04:13:27;;;;;;;;;;;;;;;13.67;53.43;100003.84;4483568;31;34248;-62
2022/09/22 04:15:54;;;;;;;;;;;;;;;13.65;53.34;100004.00;4482426;32;34150;-62
2022/09/22 04:18:22;;;;;;;;;;;;;;;13.70;53.13;99999.06;4483881;31;32031;-62
2022/09/22 04:20:49;;;;;;;;;;;;;;;13.70;53.01;99999.06;4491476;31;34106;-62
2022/09/22 04:23:17;;;;;;;;;;;;;;;13.63;53.30;100003.25;4481550;31;34284;-62
2022/09/22 04:25:44;;;;;;;;;;;;;;;13.68;53.15;100003.75;4494216;31;33939;-63
2022/09/22 04:28:11;;;;;;;;;;;;;;;13.68;52.93;100008.28;4482493;31;33060;-62
2022/09/22 04:30:39;;;;;;;;;;;;;;;13.70;52.93;100009.81;4482146;31;35260;-64
2022/09/22 04:33:06;;;;;;;;;;;;;;;13.78;52.80;100005.66;4481090;31;34440;-62
2022/09/22 04:35:33;;;;;;;;;;;;;;;13.85;52.40;100012.22;4482387;31;35663;-62
2022/09/22 04:38:01;;;;;;;;;;;;;;;13.88;52.52;100009.28;4481758;31;33559;-62
2022/09/22 04:40:28;;;;;;;;;;;;;;;13.85;52.51;100015.78;4481170;31;33973;-61
2022/09/22 04:42:56;;;;;;;;;;;;;;;13.77;53.15;100020.91;4497589;31;35255;-61
2022/09/22 04:45:23;;;;;;;;;;;;;;;13.89;53.04;100019.06;4484725;31;33947;-61
2022/09/22 04:47:51;;;;;;;;;;;;;;;13.51;53.80;100017.72;4482026;31;33284;-61
2022/09/22 04:50:19;;;;;;;;;;;;;;;13.54;53.89;100017.47;4470698;32;33689;-61
2022/09/22 04:52:47;;;;;;;;;;;;;;;12.81;55.50;100014.41;4482010;31;35373;-61
2022/09/22 04:55:15;;;;;;;;;;;;;;;13.58;53.95;100012.69;4481171;31;32255;-62
2022/09/22 04:57:52;;;;;;;;;;;;;;;13.74;53.78;100015.84;4498401;31;31901;-61
2022/09/22 05:00:21;;;;;;;;;;;;;;;13.51;54.37;100009.66;4483567;31;34172;-61
2022/09/22 05:02:48;;;;;;;;;;;;;;;13.78;53.86;100016.44;4493002;31;33397;-63
2022/09/22 05:05:16;;;;;;;;;;;;;;;13.92;53.28;100016.09;4492210;31;34065;-64
2022/09/22 05:07:45;;;;;;;;;;;;;;;14.23;52.17;100013.50;4498320;31;33272;-63
2022/09/22 05:10:12;;;;;;;;;;;;;;;14.14;52.60;100017.84;4495021;31;32886;-62
2022/09/22 05:12:40;;;;;;;;;;;;;;;14.03;52.99;100008.00;4493780;31;34122;-61
2022/09/22 05:15:08;;;;;;;;;;;;;;;14.12;52.79;100015.25;4485814;31;34191;-62
2022/09/22 05:17:35;;;;;;;;;;;;;;;14.18;52.43;100014.72;4481250;31;33080;-62
2022/09/22 05:20:03;;;;;;;;;;;;;;;14.28;52.51;100025.56;4482904;31;34170;-62
2022/09/22 05:22:31;;;;;;;;;;;;;;;14.19;53.57;100010.22;4483347;31;34177;-62
2022/09/22 05:25:06;;;;;;;;;;;;;;;14.23;53.03;100010.81;4482777;31;35491;-61
2022/09/22 05:27:33;;;;;;;;;;;;;;;14.55;52.04;100014.31;4483371;32;32375;-62
2022/09/22 05:30:01;;;;;;;;;;;;;;;14.59;51.46;100004.97;4484702;31;34626;-62
2022/09/22 05:32:28;;;;;;;;;;;;;;;14.28;52.29;100005.88;4484857;31;33976;-61
2022/09/22 05:34:56;;;;;;;;;;;;;;;14.30;52.51;100020.06;4485236;31;34193;-62
2022/09/22 05:37:23;;;;;;;;;;;;;;;14.07;53.28;100011.28;4496215;31;32071;-62
2022/09/22 05:39:50;;;;;;;;;;;;;;;14.18;53.94;100017.44;4498754;31;34912;-62
2022/09/22 05:42:17;;;;;;;;;;;;;;;14.47;53.14;100022.16;4491777;31;35226;-62
2022/09/22 05:44:45;;;;;;;;;;;;;;;14.39;52.45;100016.59;4486713;31;33998;-62
2022/09/22 05:47:12;;;;;;;;;;;;;;;14.27;53.17;100020.34;4502060;31;34323;-62
2022/09/22 05:49:39;;;;;;;;;;;;;;;14.46;52.87;100020.44;4499658;31;32890;-62
2022/09/22 05:52:07;;;;;;;;;;;;;;;14.65;52.51;100023.28;4499827;31;33235;-62
2022/09/22 05:54:34;;;;;;;;;;;;;;;14.06;54.54;100020.31;4491325;31;34964;-62
2022/09/22 05:57:01;;;;;;;;;;;;;;;14.41;54.72;100031.62;4493092;31;33487;-62
2022/09/22 05:59:29;;;;;;;;;;;;;;;14.29;54.97;100026.44;4486258;32;34000;-61
2022/09/22 06:01:56;;;;;;;;;;;;;;;14.63;53.47;100027.94;4494420;31;34287;-61
2022/09/22 06:04:26;;;;;;;;;;;;;;;14.46;53.20;100028.53;4485870;31;33885;-61
2022/09/22 06:06:53;;;;;;;;;;;;;;;14.65;52.89;100025.12;4485278;31;33089;-61
2022/09/22 06:09:20;;;;;;;;;;;;;;;13.94;54.96;100027.59;4486385;31;35367;-61
2022/09/22 06:11:48;;;;;;;;;;;;;;;14.71;53.44;100029.12;4487637;31;34041;-62
2022/09/22 06:14:15;;;;;;;;;;;;;;;14.78;54.47;100033.00;4500232;31;35375;-62
2022/09/22 06:16:42;;;;;;;;;;;;;;;15.04;53.83;100034.22;4488188;31;33714;-62
2022/09/22 06:19:10;;;;;;;;;;;;;;;14.78;54.31;100038.38;4495489;31;34865;-62
2022/09/22 06:21:37;;;;;;;;;;;;;;;14.71;54.23;100034.53;4489750;31;34162;-62
2022/09/22 06:24:05;;;;;;;;;;;;;;;14.95;52.73;100031.50;4495993;31;32583;-62
2022/09/22 06:26:33;;;;;;;;;;;;;;;14.57;54.11;100033.84;4484873;31;34730;-61
2022/09/22 06:29:00;;;;;;;;;;;;;;;15.99;50.89;100027.47;4485447;31;34171;-62
2022/09/22 06:31:27;;;;;;;;;;;;;;;16.44;50.37;100033.09;4483663;31;32875;-62
2022/09/22 06:33:55;;;;;;;;;;;;;;;16.76;49.15;100032.78;4499069;31;33726;-62
2022/09/22 06:36:31;;;;;;;;;;;;;;;16.48;49.04;100034.50;4493686;31;33086;-61
2022/09/22 06:38:59;;;;;;;;;;;;;;;15.96;51.18;100036.72;4486033;32;33903;-62
2022/09/22 06:41:27;;;;;;;;;;;;;;;15.77;51.04;100037.56;4476172;31;34184;-61
2022/09/22 06:43:56;;;;;;;;;;;;;;;14.91;55.05;100042.53;4499009;31;32192;-62
2022/09/22 06:46:25;;;;;;;;;;;;;;;15.48;52.15;100032.09;4498881;31;33623;-61
2022/09/22 06:48:58;;;;;;;;;;;;;;;15.48;52.32;100033.94;4499527;31;33795;-62
2022/09/22 06:51:26;;;;;;;;;;;;;;;15.00;53.09;100035.50;4496726;31;34472;-61
2022/09/22 06:53:54;;;;;;;;;;;;;;;15.12;53.57;100036.25;4486131;31;34086;-61
2022/09/22 06:56:22;;;;;;;;;;;;;;;15.34;52.95;100032.47;4485559;31;33514;-61
2022/09/22 06:58:50;;;;;;;;;;;;;;;15.65;52.30;100040.50;4485535;32;32992;-61
2022/09/22 07:01:36;;;;;;;;;;;;;;;15.16;53.48;100042.22;4484908;31;34562;-61
2022/09/22 07:04:04;;;;;;;;;;;;;;;15.37;53.71;100048.38;4483484;31;35525;-62
2022/09/22 07:06:31;;;;;;;;;;;;;;;15.65;52.23;100043.19;4480524;32;32040;-62
2022/09/22 07:08:58;;;;;;;;;;;;;;;15.22;54.50;100041.69;4485371;32;34721;-61
2022/09/22 07:11:26;;;;;;;;;;;;;;;15.66;52.77;100042.19;4478568;31;33777;-62
2022/09/22 07:13:53;;;;;;;;;;;;;;;15.43;53.31;100041.59;4486463;31;32633;-61
2022/09/22 07:16:21;;;;;;;;;;;;;;;14.99;54.34;100036.50;4496504;31;34474;-61
2022/09/22 07:18:50;;;;;;;;;;;;;;;14.97;55.68;100038.47;4485057;31;35206;-61
2022/09/22 07:21:23;;;;;;;;;;;;;;;15.54;53.33;100039.63;4496322;31;33669;-61
2022/09/22 07:23:52;;;;;;;;;;;;;;;15.69;54.24;100036.53;4485131;31;35402;-61
2022/09/22 07:26:20;;;;;;;;;;;;;;;15.42;53.60;100037.19;4484329;31;33438;-61
2022/09/22 07:28:50;;;;;;;;;;;;;;;15.70;53.02;100033.72;4488786;31;33538;-61
2022/09/22 07:31:18;;;;;;;;;;;;;;;15.81;52.69;100032.72;4488103;31;33308;-62
2022/09/22 07:33:45;;;;;;;;;;;;;;;14.97;55.01;100043.84;4466606;31;837551;-61
2022/09/22 07:36:13;;;;;;;;;;;;;;;15.35;53.51;100044.97;4499120;31;33578;-62
2022/09/22 07:38:41;;;;;;;;;;;;;;;15.56;53.38;100045.72;4487557;31;34894;-61
2022/09/22 07:41:10;;;;;;;;;;;;;;;15.17;55.44;100042.06;4481837;31;32585;-61
2022/09/22 07:43:38;;;;;;;;;;;;;;;15.71;53.95;100045.34;4485182;31;34160;-62
2022/09/22 07:46:06;;;;;;;;;;;;;;;15.67;52.48;100046.63;4484405;31;32056;-61
2022/09/22 07:48:36;;;;;;;;;;;;;;;15.87;52.26;100044.81;4498709;31;35152;-62
2022/09/22 07:51:04;;;;;;;;;;;;;;;15.74;52.28;100050.47;4499214;31;34137;-61
2022/09/22 07:53:32;;;;;;;;;;;;;;;15.52;53.25;100046.16;4499606;31;34270;-62
2022/09/22 07:56:08;;;;;;;;;;;;;;;15.78;53.18;100041.94;4481972;32;31788;-62
2022/09/22 07:58:36;;;;;;;;;;;;;;;15.44;53.50;100046.84;4485835;31;34197;-61
2022/09/22 08:01:04;;;;;;;;;;;;;;;15.44;53.49;100046.84;4487069;31;33948;-61
2022/09/22 08:03:32;;;;;;;;;;;;;;;15.65;53.32;100051.28;4497215;31;34004;-61
2022/09/22 08:06:08;;;;;;;;;;;;;;;16.06;52.34;100039.41;4485207;32;31858;-62
2022/09/22 08:08:41;;;;;;;;;;;;;;;16.24;52.45;100044.91;4484966;31;34052;-62
2022/09/22 08:11:12;;;;;;;;;;;;;;;16.21;52.27;100042.50;4488992;31;34407;-62
2022/09/22 08:13:41;;;;;;;;;;;;;;;15.94;51.59;100043.25;4496500;31;34189;-62
2022/09/22 08:16:10;;;;;;;;;;;;;;;16.25;51.39;100049.34;4500411;31;33393;-62
2022/09/22 08:18:38;;;;;;;;;;;;;;;16.03;51.82;100053.19;4495670;31;34465;-61
2022/09/22 08:21:06;;;;;;;;;;;;;;;15.52;52.48;100056.94;4493946;31;34421;-61
2022/09/22 08:23:34;;;;;;;;;;;;;;;15.20;53.22;100060.69;4483364;31;33774;-61
2022/09/22 08:26:02;;;;;;;;;;;;;;;15.54;52.31;100052.28;4488866;31;32094;-61
2022/09/22 08:28:30;;;;;;;;;;;;;;;15.31;53.31;100060.59;4495538;31;34960;-62
2022/09/22 08:30:57;;;;;;;;;;;;;;;15.53;53.10;100055.94;4484789;31;32976;-62
2022/09/22 08:33:25;;;;;;;;;;;;;;;15.42;53.79;100059.62;4483891;31;34274;-63
2022/09/22 08:35:53;;;;;;;;;;;;;;;15.25;54.01;100055.75;4485329;32;32148;-63
2022/09/22 08:38:22;;;;;;;;;;;;;;;15.59;54.03;100048.13;4487970;31;34187;-64
2022/09/22 08:40:57;;;;;;;;;;;;;;;15.55;53.95;100051.25;4488684;31;33107;-64
2022/09/22 08:43:25;;;;;;;;;;;;;;;16.03;52.47;100045.09;4483028;31;34409;-63
2022/09/22 08:45:52;;;;;;;;;;;;;;;16.01;53.30;100049.78;4490642;31;33100;-63
2022/09/22 08:53:55;;;;;;;;;;;;;;;16.73;49.79;100034.88;4486133;31;34448;-64
2022/09/22 08:56:43;;;;;;;;;;;;;;;16.35;50.86;100033.13;4498730;31;32116;-62
2022/09/22 08:59:17;;;;;;;;;;;;;;;16.76;47.76;100037.31;4490015;31;34901;-62
2022/09/22 09:02:04;;;;;;;;;;;;;;;16.36;48.90;100041.06;4490190;31;34555;-62
2022/09/22 09:04:46;;;;;;;;;;;;;;;16.71;47.18;100035.00;4484410;31;32911;-62
2022/09/22 09:07:33;;;;;;;;;;;;;;;16.37;48.73;100037.41;4471298;31;31891;-62
2022/09/22 09:10:27;;;;;;;;;;;;;;;16.19;49.73;100037.25;4484152;32;34050;-62
2022/09/22 09:13:13;;;;;;;;;;;;;;;16.81;48.98;100032.31;4466046;31;34249;-62
2022/09/22 09:15:44;;;;;;;;;;;;;;;17.37;46.54;100039.47;4486328;31;33823;-62
2022/09/22 09:18:16;;;;;;;;;;;;;;;17.43;46.12;100035.28;4483965;32;33452;-62
2022/09/22 09:20:44;;;;;;;;;;;;;;;17.42;45.15;100034.44;4475334;31;33892;-62
2022/09/22 09:23:14;;;;;;;;;;;;;;;17.43;45.66;100025.34;4496562;31;34651;-62
2022/09/22 09:25:42;;;;;;;;;;;;;;;17.39;45.30;100029.31;4484388;31;32954;-62
2022/09/22 09:28:14;;;;;;;;;;;;;;;17.87;44.76;100028.16;4483992;31;33265;-63
2022/09/22 09:30:43;;;;;;;;;;;;;;;16.99;45.73;100032.41;4480105;31;34032;-62
2022/09/22 09:33:13;;;;;;;;;;;;;;;17.68;44.17;100034.53;4490138;31;34838;-62
2022/09/22 09:35:51;;;;;;;;;;;;;;;17.99;43.48;100034.22;4485708;31;33350;-62
2022/09/22 09:38:26;;;;;;;;;;;;;;;18.07;42.33;100037.00;4472732;31;33281;-62
2022/09/22 09:41:20;;;;;;;;;;;;;;;18.51;41.73;100031.56;4496337;31;34029;-62
2022/09/22 09:43:49;;;;;;;;;;;;;;;18.09;43.43;100034.97;4489987;31;34213;-62
2022/09/22 09:46:23;;;;;;;;;;;;;;;18.34;42.90;100040.59;4478674;31;35140;-61
2022/09/22 09:49:01;;;;;;;;;;;;;;;18.25;41.85;100030.72;4498064;31;33392;-61
2022/09/22 09:51:28;;;;;;;;;;;;;;;18.79;40.50;100039.59;4491980;31;35316;-61
2022/09/22 09:53:56;;;;;;;;;;;;;;;18.83;41.30;100038.25;4483931;32;33158;-61
2022/09/22 09:56:27;;;;;;;;;;;;;;;18.58;40.90;100029.91;4491377;31;33243;-61
2022/09/22 10:01:42;;;;;;;;;;;;;;;18.91;40.22;100032.88;4488845;31;34354;-62
2022/09/22 10:04:28;;;;;;;;;;;;;;;18.52;40.85;100033.28;4472199;32;32942;-65
2022/09/22 10:07:16;;;;;;;;;;;;;;;18.75;40.78;100039.06;4478651;31;33665;-62
2022/09/22 10:09:43;;;;;;;;;;;;;;;18.74;40.57;100031.91;4482404;31;31862;-61
2022/09/22 10:12:27;;;;;;;;;;;;;;;18.94;40.74;100029.84;4475529;31;32288;-61
2022/09/22 10:14:56;;;;;;;;;;;;;;;18.91;40.91;100032.88;4501129;31;34141;-62
2022/09/22 10:17:27;;;;;;;;;;;;;;;18.62;42.08;100036.75;4501266;31;34308;-61
2022/09/22 10:20:14;;;;;;;;;;;;;;;18.85;40.22;100028.09;4494562;31;34321;-62
2022/09/22 10:22:42;;;;;;;;;;;;;;;18.70;40.53;100033.22;4470841;32;32688;-61
2022/09/22 10:25:31;;;;;;;;;;;;;;;18.75;40.34;100036.34;4492010;31;34140;-62
2022/09/22 10:28:03;;;;;;;;;;;;;;;18.66;40.61;100031.84;4487350;31;32458;-61
2022/09/22 10:30:36;;;;;;;;;;;;;;;18.66;41.16;100034.56;4489030;31;33254;-62
2022/09/22 10:33:04;;;;;;;;;;;;;;;18.81;40.76;100035.72;4489971;31;32929;-62
2022/09/22 10:35:35;;;;;;;;;;;;;;;18.90;41.50;100030.31;4484782;31;34587;-62
2022/09/22 10:38:09;;;;;;;;;;;;;;;18.51;40.95;100031.56;4496911;31;33930;-62
2022/09/22 10:40:37;;;;;;;;;;;;;;;19.41;39.79;100026.63;4485660;31;33369;-62
2022/09/22 10:43:06;;;;;;;;;;;;;;;19.70;37.69;100025.38;4486338;31;34436;-62
2022/09/22 10:45:38;;;;;;;;;;;;;;;19.43;38.67;100023.78;4486584;31;34037;-62
2022/09/22 10:48:26;;;;;;;;;;;;;;;20.07;37.24;100016.78;4500144;31;33909;-62
2022/09/22 10:50:54;;;;;;;;;;;;;;;19.90;36.81;100009.63;4485783;31;31530;-62
2022/09/22 10:53:40;;;;;;;;;;;;;;;19.45;38.53;100019.00;4488876;31;34228;-62
2022/09/22 10:56:11;;;;;;;;;;;;;;;20.32;37.22;100006.75;4488905;31;34293;-61
2022/09/22 10:58:38;;;;;;;;;;;;;;;20.29;35.70;100006.22;4490818;31;32375;-62
2022/09/22 11:01:09;;;;;;;;;;;;;;;19.91;37.55;100004.03;4495154;31;34420;-62
2022/09/22 11:03:48;;;;;;;;;;;;;;;19.52;37.87;100003.78;4477910;31;34378;-62
2022/09/22 11:12:56;;;;;;;;;;;;;;;20.15;37.53;99986.03;4472339;32;31844;-62
2022/09/22 11:15:29;;;;;;;;;;;;;;;20.08;36.91;99985.03;4490561;31;34730;-62
2022/09/22 11:18:16;;;;;;;;;;;;;;;19.68;37.91;99982.12;4463020;31;32852;-62
2022/09/22 11:20:47;;;;;;;;;;;;;;;20.12;36.81;99980.94;4497105;31;32908;-62
2022/09/22 11:23:15;;;;;;;;;;;;;;;19.53;37.83;99979.16;4475116;31;33210;-61
2022/09/22 11:25:46;;;;;;;;;;;;;;;19.96;37.59;99981.78;4488448;31;33699;-61
2022/09/22 11:28:19;;;;;;;;;;;;;;;19.69;38.44;99972.09;4471271;31;32540;-65
2022/09/22 11:30:50;;;;;;;;;;;;;;;19.90;36.80;99963.44;4486437;31;34776;-61
2022/09/22 11:33:36;;;;;;;;;;;;;;;19.86;36.05;99960.22;4481411;31;33241;-61
2022/09/22 11:36:06;;;;;;;;;;;;;;;20.45;35.59;99962.72;4488576;31;34205;-66
2022/09/22 11:38:43;;;;;;;;;;;;;;;20.14;37.72;99959.88;4489032;31;34463;-61
2022/09/22 11:41:19;;;;;;;;;;;;;;;20.44;36.94;99961.00;4470727;32;32896;-60
2022/09/22 11:43:49;;;;;;;;;;;;;;;19.96;35.85;99955.47;4463187;32;31762;-62
2022/09/22 11:46:38;;;;;;;;;;;;;;;20.71;36.32;99946.22;4478923;31;32514;-61
2022/09/22 11:49:28;;;;;;;;;;;;;;;20.41;36.04;99945.06;4476863;32;34127;-61
2022/09/22 11:51:56;;;;;;;;;;;;;;;20.04;36.59;99940.19;4467294;31;33852;-61
2022/09/22 11:54:26;;;;;;;;;;;;;;;19.60;36.26;99927.75;4479490;31;34339;-61
2022/09/22 11:56:55;;;;;;;;;;;;;;;20.17;35.90;99944.09;4469715;31;33300;-60
2022/09/22 11:59:26;;;;;;;;;;;;;;;20.41;35.02;99921.44;4483148;32;32536;-61
2022/09/22 12:01:54;;;;;;;;;;;;;;;19.68;37.15;99941.38;4473727;31;34269;-60
2022/09/22 12:04:35;;;;;;;;;;;;;;;20.32;35.09;99937.94;4465758;31;33223;-61
2022/09/22 12:07:05;;;;;;;;;;;;;;;20.58;34.42;99932.31;4469042;32;32439;-61
2022/09/22 12:09:34;;;;;;;;;;;;;;;20.68;33.74;99924.78;4472390;31;34911;-60
2022/09/22 12:12:03;;;;;;;;;;;;;;;19.88;34.41;99930.19;4466111;31;33054;-61
2022/09/22 12:14:31;;;;;;;;;;;;;;;20.18;35.07;99931.34;4476147;32;34211;-61
2022/09/22 12:17:27;;;;;;;;;;;;;;;20.52;34.35;99927.56;4472100;31;32770;-60
2022/09/22 12:20:02;;;;;;;;;;;;;;;20.30;33.87;99927.25;4465657;32;36010;-60
2022/09/22 12:22:31;;;;;;;;;;;;;;;20.35;33.83;99924.00;4465907;32;33571;-61
2022/09/22 12:25:00;;;;;;;;;;;;;;;20.16;33.97;99934.25;4466020;31;33074;-61
2022/09/22 12:27:27;;;;;;;;;;;;;;;20.18;33.76;99925.91;4467090;32;33952;-60
2022/09/22 12:29:58;;;;;;;;;;;;;;;18.54;39.79;99928.25;4467270;31;33598;-60
2022/09/22 12:32:31;;;;;;;;;;;;;;;19.00;38.93;99936.09;4468556;32;35896;-60
2022/09/22 12:34:59;;;;;;;;;;;;;;;19.63;38.55;99935.56;4472081;32;31919;-61
2022/09/22 12:38:13;;;;;;;4.20;2.30;;;;;;;20.03;38.09;99928.47;4502186;31;326004;-59
2022/09/22 12:40:42;;;;;;;6.32;2.65;;;;;;;19.84;36.90;99931.53;4503458;31;33576;-62
2022/09/22 12:43:19;;;;;;;6.22;3.28;;;;;;;19.80;37.36;99931.00;4499811;31;35744;-62
2022/09/22 12:45:48;;;;;;;4.10;2.40;;;;;;;19.76;37.95;99925.09;4494813;31;32657;-62
2022/09/22 12:48:24;;;;;;;5.07;2.80;;;;;;;19.54;39.08;99925.72;4503689;31;34611;-62
2022/09/22 12:50:52;;;;;;;6.03;3.65;;;;;;;19.33;38.17;99928.09;4505560;31;32139;-61
2022/09/22 12:53:19;;;;;;;8.95;3.33;;;;;;;18.72;40.10;99932.75;4508653;31;35076;-62
2022/09/22 12:55:54;;;;;;;5.43;2.60;;;;;;;18.97;39.87;99923.75;4505554;31;32417;-62
2022/09/22 12:58:22;;;;;;;5.40;2.80;;;;;;;18.72;41.37;99930.94;4510119;31;33428;-62
2022/09/22 13:00:55;;;;;;;4.70;2.70;;;;;;;18.78;40.90;99915.84;4495641;31;33499;-62
2022/09/22 13:03:25;;;;;;;7.40;2.80;;;;;;;18.93;40.46;99916.09;4500511;31;33760;-62
2022/09/22 13:06:01;;;;;;;4.65;2.90;;;;;;;18.94;40.50;99912.34;4503590;31;34495;-62
2022/09/22 13:08:28;;;;;;;7.97;3.40;;;;;;;19.19;40.12;99914.12;4509651;31;33330;-62